Time;durP1;ratioP1;P1;durP2;ratioP2;P2;SDS_P1;SDS_P2;PMS_P1;PMS_P2;Temp;Humidity;BMP_temperature;BMP_pressure;BME280_temperature;BME280_humidity;BME280_pressure;Samples;Min_cycle;Max_cycle;Signal;HPM_P1;HPM_P2
2023/01/06 00:00:24;;;;;;;21.02;8.02;;;10.50;99.90;;;;;;5028959;28;20045;-79
2023/01/06 00:02:50;;;;;;;29.05;8.52;;;10.40;99.90;;;;;;5013822;28;20040;-79
2023/01/06 00:05:16;;;;;;;27.42;9.95;;;10.40;99.90;;;;;;5028448;28;20128;-80
2023/01/06 00:07:43;;;;;;;24.25;7.45;;;10.50;99.90;;;;;;5026445;28;20156;-79
2023/01/06 00:10:10;;;;;;;32.70;8.02;;;10.50;99.90;;;;;;5025833;28;20044;-79
2023/01/06 00:12:36;;;;;;;29.70;7.80;;;10.50;99.90;;;;;;5009795;28;20092;-79
2023/01/06 00:15:02;;;;;;;24.85;6.93;;;10.50;99.90;;;;;;5026657;28;20473;-78
2023/01/06 00:17:28;;;;;;;23.80;7.25;;;10.50;99.90;;;;;;5025246;28;20064;-78
2023/01/06 00:19:53;;;;;;;33.25;7.72;;;10.50;99.90;;;;;;5026257;28;20040;-78
2023/01/06 00:22:19;;;;;;;31.73;6.88;;;10.50;99.90;;;;;;5025181;28;20103;-78
2023/01/06 00:24:44;;;;;;;30.20;7.00;;;10.50;99.90;;;;;;5010020;28;20406;-78
2023/01/06 00:27:10;;;;;;;50.58;7.93;;;10.60;99.90;;;;;;5025206;28;20086;-79
2023/01/06 00:29:36;;;;;;;27.52;6.28;;;10.50;99.90;;;;;;5026335;28;20042;-79
2023/01/06 00:32:02;;;;;;;26.05;6.20;;;10.50;99.90;;;;;;5026071;28;20052;-78
2023/01/06 00:34:28;;;;;;;29.77;5.85;;;10.50;99.90;;;;;;5025508;28;20061;-79
2023/01/06 00:36:55;;;;;;;24.88;5.85;;;10.60;99.90;;;;;;5027177;28;20468;-79
2023/01/06 00:39:21;;;;;;;23.48;5.80;;;10.60;99.90;;;;;;5008234;28;20049;-78
2023/01/06 00:42:05;;;;;;;33.28;6.45;;;10.60;99.90;;;;;;5026471;28;20322;-79
2023/01/06 00:44:34;;;;;;;27.27;6.97;;;10.50;99.90;;;;;;5011678;28;20049;-78
2023/01/06 00:47:00;;;;;;;13.65;3.63;;;10.60;99.90;;;;;;5009596;28;20091;-79
2023/01/06 00:49:26;;;;;;;23.13;4.85;;;10.60;99.90;;;;;;5009213;28;20045;-79
2023/01/06 00:51:52;;;;;;;22.63;6.03;;;10.60;99.90;;;;;;5024707;28;20053;-79
2023/01/06 00:54:19;;;;;;;23.88;5.53;;;10.60;99.90;;;;;;5026034;28;20051;-78
2023/01/06 00:56:47;;;;;;;26.65;5.25;;;10.60;99.90;;;;;;5024279;28;20184;-79
2023/01/06 00:59:15;;;;;;;29.90;6.20;;;10.60;99.90;;;;;;5027334;28;20341;-79
2023/01/06 01:01:42;;;;;;;23.10;5.15;;;10.60;99.90;;;;;;5024667;28;20554;-79
2023/01/06 01:04:08;;;;;;;24.75;4.53;;;10.80;99.90;;;;;;5025094;28;20049;-79
2023/01/06 01:06:35;;;;;;;25.95;5.50;;;10.60;99.90;;;;;;5009115;28;20366;-79
2023/01/06 01:09:02;;;;;;;23.48;5.38;;;10.60;99.90;;;;;;5007656;28;20053;-79
2023/01/06 01:14:14;;;;;;;27.27;6.55;;;10.70;99.90;;;;;;5010274;28;20155;-79
2023/01/06 01:16:40;;;;;;;26.00;4.90;;;10.70;99.90;;;;;;5008375;28;20045;-78
2023/01/06 01:19:07;;;;;;;21.33;4.68;;;10.60;99.90;;;;;;5008083;28;20041;-79
2023/01/06 01:21:32;;;;;;;20.92;4.68;;;10.70;99.90;;;;;;5024383;28;20054;-79
2023/01/06 01:23:58;;;;;;;14.48;4.15;;;10.90;99.90;;;;;;5026616;28;20056;-79
2023/01/06 01:26:24;;;;;;;14.65;2.95;;;10.60;99.90;;;;;;5023822;28;20130;-79
2023/01/06 01:28:49;;;;;;;19.13;4.53;;;10.60;99.90;;;;;;5009208;28;20041;-79
2023/01/06 01:31:15;;;;;;;19.50;2.85;;;10.70;99.90;;;;;;4990030;28;20506;-79
2023/01/06 01:33:41;;;;;;;14.10;2.95;;;10.90;99.90;;;;;;5026036;28;20044;-79
2023/01/06 01:36:09;;;;;;;18.20;3.20;;;10.70;99.90;;;;;;5024067;28;20061;-79
2023/01/06 01:38:35;;;;;;;11.23;2.40;;;10.70;99.90;;;;;;5007871;28;20053;-79
2023/01/06 01:41:02;;;;;;;14.95;2.65;;;10.70;99.90;;;;;;5025338;28;20393;-79
2023/01/06 01:43:43;;;;;;;6.55;2.22;;;10.70;99.90;;;;;;5006928;28;20033;-79
2023/01/06 01:46:10;;;;;;;15.63;3.45;;;9.80;99.90;;;;;;5024889;28;20091;-79
2023/01/06 01:48:37;;;;;;;15.57;3.30;;;10.70;99.90;;;;;;5024233;28;20401;-80
2023/01/06 01:51:07;;;;;;;12.32;2.72;;;10.70;99.90;;;;;;5024532;28;20049;-79
2023/01/06 01:53:37;;;;;;;12.93;2.58;;;10.90;99.90;;;;;;5024056;28;20091;-79
2023/01/06 01:56:08;;;;;;;14.93;2.65;;;10.60;99.90;;;;;;5023449;28;20112;-79
2023/01/06 01:58:42;;;;;;;13.63;1.95;;;10.60;99.90;;;;;;5008290;28;20049;-78
2023/01/06 02:01:09;;;;;;;10.85;3.40;;;10.60;99.90;;;;;;5006462;28;20048;-79
2023/01/06 02:03:37;;;;;;;11.10;2.60;;;10.60;99.90;;;;;;5024292;28;20059;-79
2023/01/06 02:06:08;;;;;;;17.00;2.83;;;10.60;99.90;;;;;;5023587;28;20045;-79
2023/01/06 02:08:37;;;;;;;13.88;2.53;;;10.60;99.90;;;;;;5023504;28;20095;-78
2023/01/06 02:11:04;;;;;;;15.77;2.38;;;10.60;99.90;;;;;;5024618;28;20049;-79
2023/01/06 02:13:33;;;;;;;8.77;2.38;;;10.60;99.90;;;;;;5022623;28;20268;-78
2023/01/06 02:16:37;;;;;;;13.63;2.40;;;10.80;99.90;;;;;;5007761;28;20049;-78
2023/01/06 02:19:21;;;;;;;8.75;2.35;;;10.70;99.90;;;;;;5004792;28;20061;-79
2023/01/06 02:22:24;;;;;;;11.48;2.30;;;10.70;99.90;;;;;;5023218;28;20049;-79
2023/01/06 02:25:09;;;;;;;13.57;3.00;;;10.70;99.90;;;;;;5024310;28;20056;-79
2023/01/06 02:27:50;;;;;;;14.95;3.22;;;10.60;99.90;;;;;;5006808;28;20049;-79
2023/01/06 02:30:37;;;;;;;11.10;2.95;;;10.70;99.90;;;;;;5006477;28;20042;-79
2023/01/06 02:33:12;;;;;;;15.82;3.33;;;10.70;99.90;;;;;;5007811;28;20045;-79
2023/01/06 02:35:47;;;;;;;14.50;2.60;;;10.60;99.90;;;;;;5006617;28;20096;-79
2023/01/06 02:38:37;;;;;;;16.42;2.92;;;10.70;99.90;;;;;;5023856;28;20065;-79
2023/01/06 02:41:34;;;;;;;12.32;2.75;;;10.70;99.90;;;;;;5007747;28;20069;-79
2023/01/06 02:44:03;;;;;;;13.32;3.17;;;10.70;99.90;;;;;;5029447;28;20085;-79
2023/01/06 02:47:04;;;;;;;14.68;2.33;;;10.60;99.90;;;;;;5030997;28;20127;-79
2023/01/06 02:49:51;;;;;;;12.57;2.45;;;10.60;99.90;;;;;;4976908;28;20390;-80
2023/01/06 02:52:26;;;;;;;14.63;2.65;;;10.60;99.90;;;;;;5027442;28;20057;-79
2023/01/06 02:55:30;;;;;;;11.52;2.22;;;10.60;99.90;;;;;;5030946;28;20048;-79
2023/01/06 02:58:04;;;;;;;8.93;2.30;;;10.60;99.90;;;;;;4991457;28;20059;-79
2023/01/06 03:00:34;;;;;;;3.58;1.60;;;10.60;99.90;;;;;;5012521;28;20056;-79
2023/01/06 03:03:03;;;;;;;13.52;1.95;;;10.60;99.90;;;;;;5014535;28;20041;-78
2023/01/06 03:05:32;;;;;;;20.48;4.70;;;11.20;99.90;;;;;;5028883;28;20049;-79
2023/01/06 03:08:03;;;;;;;8.25;1.70;;;10.60;99.90;;;;;;5013476;28;20065;-79
2023/01/06 03:10:30;;;;;;;10.25;1.98;;;10.60;99.90;;;;;;5029386;28;20061;-79
2023/01/06 03:13:00;;;;;;;11.52;4.13;;;10.60;99.90;;;;;;5029706;28;20053;-80
2023/01/06 03:15:26;;;;;;;9.00;1.70;;;10.60;99.90;;;;;;5030222;28;20087;-80
2023/01/06 03:17:52;;;;;;;5.97;1.83;;;10.60;99.90;;;;;;5028683;28;20049;-80
2023/01/06 03:20:18;;;;;;;11.02;2.25;;;10.60;99.90;;;;;;5030432;28;20045;-80
2023/01/06 03:22:44;;;;;;;12.82;2.05;;;10.60;99.90;;;;;;5028809;28;20052;-79
2023/01/06 03:25:10;;;;;;;6.28;2.10;;;10.60;99.90;;;;;;5014099;28;20042;-79
2023/01/06 03:27:36;;;;;;;5.63;1.67;;;10.60;99.90;;;;;;5029563;28;20053;-79
2023/01/06 03:30:08;;;;;;;11.32;2.00;;;10.50;99.90;;;;;;5029512;28;20453;-79
2023/01/06 03:32:43;;;;;;;8.05;2.22;;;10.50;99.90;;;;;;5030607;28;20068;-80
2023/01/06 03:35:12;;;;;;;9.52;2.40;;;10.60;99.90;;;;;;5029009;28;20501;-80
2023/01/06 03:37:51;;;;;;;8.18;2.42;;;10.50;99.90;;;;;;5030165;28;20045;-79
2023/01/06 03:40:45;;;;;;;15.38;3.80;;;10.50;99.90;;;;;;5029590;28;20049;-79
2023/01/06 03:43:27;;;;;;;10.95;2.40;;;10.50;99.90;;;;;;5029143;28;20076;-80
2023/01/06 03:45:59;;;;;;;9.45;1.90;;;10.50;99.90;;;;;;5013708;28;20049;-80
2023/01/06 03:48:46;;;;;;;8.52;2.38;;;10.50;99.90;;;;;;5028748;28;20049;-80
2023/01/06 03:51:29;;;;;;;8.52;2.30;;;10.50;99.90;;;;;;5012915;28;20111;-79
2023/01/06 03:54:24;;;;;;;;;;;10.40;99.90;;;;;;5011453;28;20053;-80
2023/01/06 03:57:10;;;;;;;8.32;2.80;;;10.40;99.90;;;;;;5004613;28;20361;-80
2023/01/06 03:59:41;;;;;;;8.48;2.25;;;10.40;99.90;;;;;;5009971;28;20408;-79
2023/01/06 04:02:08;;;;;;;9.25;3.35;;;10.50;99.90;;;;;;5026445;28;20515;-80
2023/01/06 04:04:33;;;;;;;7.70;2.38;;;10.40;99.90;;;;;;4976719;28;20036;-79
2023/01/06 04:06:59;;;;;;;5.50;2.70;;;10.40;99.90;;;;;;5010364;28;20412;-80
2023/01/06 04:09:25;;;;;;;11.00;2.67;;;10.50;99.90;;;;;;5011977;28;20053;-80
2023/01/06 04:14:35;;;;;;;5.13;3.45;;;10.40;99.90;;;;;;5014825;28;20086;-80
2023/01/06 04:17:00;;;;;;;7.88;3.33;;;10.60;99.90;;;;;;5012832;28;20041;-80
2023/01/06 04:19:26;;;;;;;10.20;3.20;;;10.50;99.90;;;;;;5029626;28;20045;-79
2023/01/06 04:21:51;;;;;;;11.05;4.00;;;10.40;99.90;;;;;;5028051;28;20494;-79
2023/01/06 04:24:17;;;;;;;6.35;3.50;;;10.50;99.90;;;;;;5029664;28;20049;-79
2023/01/06 04:26:43;;;;;;;9.10;3.35;;;10.50;99.90;;;;;;5028096;28;20064;-79
2023/01/06 04:29:08;;;;;;;5.43;3.38;;;10.50;99.90;;;;;;5030181;28;20061;-79
2023/01/06 04:31:34;;;;;;;5.07;3.33;;;10.40;99.90;;;;;;5028776;28;20049;-79
2023/01/06 04:34:00;;;;;;;7.78;3.50;;;10.40;99.90;;;;;;5029435;28;20045;-79
2023/01/06 04:36:25;;;;;;;7.93;3.28;;;10.50;99.90;;;;;;5012606;28;20052;-79
2023/01/06 04:38:51;;;;;;;4.68;2.85;;;10.50;99.90;;;;;;5027950;28;20048;-79
2023/01/06 04:41:17;;;;;;;6.38;2.72;;;10.40;99.90;;;;;;5013464;28;20097;-79
2023/01/06 04:43:42;;;;;;;5.20;2.65;;;10.50;99.90;;;;;;4995151;28;20087;-79
2023/01/06 04:46:08;;;;;;;10.07;3.10;;;10.50;99.90;;;;;;5013115;28;20091;-80
2023/01/06 04:48:34;;;;;;;8.10;2.50;;;10.50;99.90;;;;;;4995152;28;20099;-79
2023/01/06 04:51:00;;;;;;;6.50;2.78;;;10.40;99.90;;;;;;5028851;28;20041;-79
2023/01/06 04:53:26;;;;;;;11.10;2.53;;;10.70;99.90;;;;;;5012458;28;20109;-80
2023/01/06 04:55:52;;;;;;;6.22;2.15;;;10.50;99.90;;;;;;5011860;28;20539;-80
2023/01/06 04:58:17;;;;;;;8.70;2.35;;;10.50;99.90;;;;;;4980401;28;20404;-80
2023/01/06 05:00:43;;;;;;;6.00;2.20;;;10.50;99.90;;;;;;5027331;28;20106;-79
2023/01/06 05:03:09;;;;;;;9.25;2.20;;;10.50;99.90;;;;;;5029103;28;20049;-79
2023/01/06 05:05:34;;;;;;;4.72;2.38;;;10.50;99.90;;;;;;5027538;28;20465;-79
2023/01/06 05:08:00;;;;;;;7.15;2.25;;;10.40;99.90;;;;;;5028432;28;20065;-80
2023/01/06 05:10:26;;;;;;;4.43;1.73;;;10.50;99.90;;;;;;4995716;28;20052;-79
2023/01/06 05:12:51;;;;;;;5.03;1.98;;;10.50;99.90;;;;;;5027814;28;20377;-79
2023/01/06 05:15:17;;;;;;;2.75;1.65;;;10.50;99.90;;;;;;4996600;28;20041;-79
2023/01/06 05:17:43;;;;;;;5.47;1.95;;;10.50;99.90;;;;;;4994679;28;20515;-79
2023/01/06 05:20:09;;;;;;;3.25;1.48;;;10.50;99.90;;;;;;5012284;28;20041;-79
2023/01/06 05:22:34;;;;;;;8.25;1.85;;;10.50;99.90;;;;;;5027173;28;20060;-79
2023/01/06 05:25:00;;;;;;;2.92;1.67;;;10.50;99.90;;;;;;5046557;28;20041;-79
2023/01/06 05:27:26;;;;;;;5.43;1.60;;;10.50;99.90;;;;;;5011897;28;20037;-79
2023/01/06 05:29:52;;;;;;;8.57;1.60;;;10.60;99.90;;;;;;5011768;28;20553;-79
2023/01/06 05:32:17;;;;;;;6.15;1.75;;;10.50;99.90;;;;;;5028282;28;20059;-81
2023/01/06 05:34:43;;;;;;;5.03;1.48;;;10.50;99.90;;;;;;5026954;28;20064;-80
2023/01/06 05:37:08;;;;;;;6.22;1.80;;;10.60;99.90;;;;;;5028734;28;20346;-80
2023/01/06 05:39:34;;;;;;;2.90;1.50;;;10.50;99.90;;;;;;5010182;28;20320;-79
2023/01/06 05:42:00;;;;;;;4.32;1.30;;;10.50;99.90;;;;;;5046117;28;20518;-80
2023/01/06 05:44:25;;;;;;;2.53;1.55;;;10.60;99.90;;;;;;5027650;28;20041;-79
2023/01/06 05:46:51;;;;;;;3.53;1.80;;;10.50;99.90;;;;;;5027864;28;20104;-80
2023/01/06 05:49:17;;;;;;;3.45;2.00;;;10.60;99.90;;;;;;5011274;28;20392;-79
2023/01/06 05:51:42;;;;;;;4.13;2.50;;;10.50;99.90;;;;;;5010218;28;20037;-79
2023/01/06 05:54:09;;;;;;;7.07;2.38;;;10.50;99.90;;;;;;4995417;28;20045;-79
2023/01/06 05:56:35;;;;;;;8.07;2.72;;;10.50;99.90;;;;;;5009983;28;20052;-81
2023/01/06 05:59:01;;;;;;;6.72;3.00;;;10.50;99.90;;;;;;5011450;28;20048;-79
2023/01/06 06:01:30;;;;;;;7.10;3.05;;;10.40;99.90;;;;;;5027007;28;20071;-80
2023/01/06 06:03:56;;;;;;;8.32;4.22;;;10.40;99.90;;;;;;5010904;28;20041;-80
2023/01/06 06:06:24;;;;;;;9.77;4.20;;;10.40;99.90;;;;;;5027557;28;20055;-80
2023/01/06 06:08:50;;;;;;;7.05;4.40;;;10.30;99.90;;;;;;5022736;28;20057;-80
2023/01/06 06:11:18;;;;;;;5.63;4.05;;;10.20;99.90;;;;;;5024488;28;20107;-80
2023/01/06 06:13:55;;;;;;;4.57;4.18;;;10.20;99.90;;;;;;5023450;28;20459;-80
2023/01/06 06:16:24;;;;;;;6.63;4.70;;;10.10;99.90;;;;;;5023546;28;20052;-80
2023/01/06 06:18:52;;;;;;;6.63;4.90;;;10.10;99.90;;;;;;5023475;28;20504;-81
2023/01/06 06:21:26;;;;;;;5.18;4.43;;;10.00;99.90;;;;;;5023445;28;20095;-81
2023/01/06 06:23:54;;;;;;;7.28;4.30;;;10.00;99.90;;;;;;5024399;28;20055;-80
2023/01/06 06:26:19;;;;;;;6.82;4.95;;;10.00;99.90;;;;;;5023376;28;20439;-81
2023/01/06 06:28:45;;;;;;;6.53;4.93;;;10.30;99.90;;;;;;5024243;28;20095;-81
2023/01/06 06:31:14;;;;;;;8.10;4.60;;;10.00;99.90;;;;;;5022966;28;20114;-81
2023/01/06 06:33:40;;;;;;;7.35;4.20;;;10.00;99.90;;;;;;5007695;28;20045;-81
2023/01/06 06:36:14;;;;;;;7.97;4.03;;;10.20;99.90;;;;;;5007038;28;20048;-81
2023/01/06 06:38:48;;;;;;;10.32;4.03;;;10.00;99.90;;;;;;5023074;28;20045;-81
2023/01/06 06:41:15;;;;;;;8.20;4.07;;;10.00;99.90;;;;;;4991399;28;20337;-81
2023/01/06 06:43:41;;;;;;;7.07;3.60;;;10.00;99.90;;;;;;5023068;28;20040;-81
2023/01/06 06:46:07;;;;;;;4.82;3.90;;;10.30;99.90;;;;;;5007522;28;20128;-80
2023/01/06 06:48:33;;;;;;;11.15;4.00;;;10.10;99.90;;;;;;5023155;28;20052;-81
2023/01/06 06:51:07;;;;;;;4.78;3.78;;;10.00;99.90;;;;;;5023601;28;20045;-80
2023/01/06 06:53:33;;;;;;;5.68;4.00;;;10.00;99.90;;;;;;5023661;28;20485;-81
2023/01/06 06:55:59;;;;;;;8.80;4.05;;;10.00;99.90;;;;;;5006750;28;20041;-81
2023/01/06 06:58:25;;;;;;;5.57;3.25;;;10.00;99.90;;;;;;5007256;28;20089;-82
2023/01/06 07:00:52;;;;;;;7.45;3.33;;;10.70;99.90;;;;;;5005951;28;20041;-81
2023/01/06 07:03:18;;;;;;;6.10;3.17;;;10.40;99.90;;;;;;4991165;28;20029;-81
2023/01/06 07:05:46;;;;;;;4.13;2.92;;;10.00;99.90;;;;;;5006583;28;20050;-82
2023/01/06 07:08:13;;;;;;;12.52;3.63;;;10.00;99.90;;;;;;5025429;28;20397;-82
2023/01/06 07:10:39;;;;;;;4.68;2.83;;;10.00;99.90;;;;;;5026623;28;20064;-81
2023/01/06 07:13:05;;;;;;;3.85;2.40;;;10.00;99.90;;;;;;5009308;28;20045;-82
2023/01/06 07:15:31;;;;;;;6.00;2.20;;;9.20;99.90;;;;;;5010379;28;20045;-83
2023/01/06 07:18:04;;;;;;;3.53;2.60;;;10.00;99.90;;;;;;5025984;28;20120;-82
2023/01/06 07:20:32;;;;;;;5.35;2.53;;;10.00;99.90;;;;;;5010900;28;20493;-81
2023/01/06 07:22:58;;;;;;;10.52;3.17;;;10.00;99.90;;;;;;5044283;28;20057;-81
2023/01/06 07:25:24;;;;;;;4.72;1.70;;;10.00;99.90;;;;;;5009970;28;20048;-80
2023/01/06 07:27:55;;;;;;;4.68;2.10;;;10.00;99.90;;;;;;5044540;28;20408;-79
2023/01/06 07:30:21;;;;;;;6.45;2.53;;;10.00;99.90;;;;;;5046198;28;20044;-80
2023/01/06 07:32:47;;;;;;;3.70;1.70;;;10.10;99.90;;;;;;5014060;28;20049;-80
2023/01/06 07:35:13;;;;;;;5.32;1.25;;;10.10;99.90;;;;;;5047159;28;20045;-80
2023/01/06 07:37:39;;;;;;;2.88;1.30;;;10.10;99.90;;;;;;5013991;28;20098;-80
2023/01/06 07:40:05;;;;;;;1.80;1.33;;;10.10;99.90;;;;;;5013409;28;20044;-79
2023/01/06 07:42:31;;;;;;;3.65;1.60;;;10.10;99.90;;;;;;5030580;28;20801;-80
2023/01/06 07:44:57;;;;;;;3.58;1.25;;;10.30;99.90;;;;;;5030086;28;20045;-80
2023/01/06 07:47:22;;;;;;;5.82;1.42;;;10.20;99.90;;;;;;5029270;28;20048;-80
2023/01/06 07:49:48;;;;;;;3.58;1.00;;;10.20;99.90;;;;;;4981379;28;20037;-79
2023/01/06 07:52:14;;;;;;;3.67;1.10;;;10.10;99.90;;;;;;5012518;28;20131;-80
2023/01/06 07:54:39;;;;;;;4.53;0.82;;;10.10;99.90;;;;;;5013486;28;20377;-80
2023/01/06 07:57:05;;;;;;;4.75;0.95;;;10.00;99.90;;;;;;5012633;28;20087;-79
2023/01/06 07:59:31;;;;;;;3.97;0.93;;;9.90;99.90;;;;;;5047826;28;20049;-78
2023/01/06 08:01:56;;;;;;;3.22;0.63;;;9.90;99.90;;;;;;5013921;28;20404;-78
2023/01/06 08:04:22;;;;;;;4.63;0.77;;;9.80;99.90;;;;;;5047243;28;20125;-77
2023/01/06 08:06:48;;;;;;;3.75;0.75;;;9.80;99.90;;;;;;5048133;28;20045;-78
2023/01/06 08:09:14;;;;;;;8.23;2.08;;;9.60;99.90;;;;;;5046257;28;20550;-79
2023/01/06 08:11:40;;;;;;;4.40;0.57;;;9.60;99.90;;;;;;5030079;28;20049;-77
2023/01/06 08:14:06;;;;;;;8.82;0.65;;;9.50;99.90;;;;;;5012530;28;20116;-78
2023/01/06 08:16:31;;;;;;;6.40;0.60;;;9.40;99.90;;;;;;5029417;28;20118;-78
2023/01/06 08:18:57;;;;;;;4.72;0.65;;;9.30;99.90;;;;;;5012753;28;20055;-78
2023/01/06 08:21:23;;;;;;;3.80;0.60;;;9.20;99.90;;;;;;5029245;28;20049;-78
2023/01/06 08:23:48;;;;;;;5.05;0.43;;;9.20;99.90;;;;;;5013671;28;20099;-78
2023/01/06 08:26:16;;;;;;;1.98;0.30;;;9.00;99.90;;;;;;5028608;28;20499;-78
2023/01/06 08:28:43;;;;;;;1.58;0.35;;;9.00;99.90;;;;;;5029690;28;20061;-78
2023/01/06 08:31:19;;;;;;;2.83;0.35;;;8.90;99.90;;;;;;5028535;28;20041;-79
2023/01/06 08:33:45;;;;;;;13.68;1.48;;;8.80;99.90;;;;;;5013032;28;20045;-77
2023/01/06 08:36:14;;;;;;;6.72;1.10;;;8.80;99.90;;;;;;5029765;28;20098;-79
2023/01/06 08:38:40;;;;;;;7.20;0.47;;;8.70;99.90;;;;;;5012033;28;20184;-79
2023/01/06 08:41:06;;;;;;;4.65;0.47;;;8.60;99.90;;;;;;5030063;28;20045;-82
2023/01/06 08:43:32;;;;;;;4.00;0.47;;;8.70;99.90;;;;;;5028006;28;20360;-81
2023/01/06 08:45:59;;;;;;;7.68;0.40;;;8.50;99.90;;;;;;5013194;28;20055;-81
2023/01/06 08:48:26;;;;;;;8.65;1.33;;;8.50;99.90;;;;;;5028280;28;20124;-81
2023/01/06 08:50:52;;;;;;;2.13;0.52;;;8.50;99.90;;;;;;5028798;28;20083;-81
2023/01/06 08:53:18;;;;;;;3.90;0.35;;;8.50;99.90;;;;;;4996074;28;20138;-81
2023/01/06 08:55:43;;;;;;;4.63;0.40;;;8.50;99.90;;;;;;4995282;28;20044;-81
2023/01/06 08:58:09;;;;;;;2.75;0.47;;;8.80;99.90;;;;;;5028895;28;20063;-82
2023/01/06 09:00:38;;;;;;;7.25;0.50;;;8.40;99.90;;;;;;5011590;28;20040;-82
2023/01/06 09:03:04;;;;;;;3.72;0.82;;;8.40;99.90;;;;;;5029251;28;20052;-81
2023/01/06 09:05:29;;;;;;;6.32;0.52;;;8.40;99.90;;;;;;5011096;28;20404;-82
2023/01/06 09:07:55;;;;;;;9.20;1.35;;;8.40;99.90;;;;;;5028951;28;20049;-82
2023/01/06 09:10:21;;;;;;;5.82;0.80;;;8.40;99.90;;;;;;4995345;28;20084;-82
2023/01/06 09:12:47;;;;;;;5.00;0.80;;;8.40;99.90;;;;;;5011409;28;20047;-82
2023/01/06 09:15:13;;;;;;;11.77;1.08;;;8.40;99.90;;;;;;5029583;28;20383;-82
2023/01/06 09:17:39;;;;;;;7.03;0.82;;;8.40;99.90;;;;;;5027409;28;20045;-82
2023/01/06 09:20:05;;;;;;;8.13;1.33;;;8.50;99.90;;;;;;5029198;28;20508;-82
2023/01/06 09:22:31;;;;;;;4.53;0.68;;;8.50;99.90;;;;;;5011018;28;20708;-82
2023/01/06 09:24:57;;;;;;;5.80;0.80;;;8.50;99.90;;;;;;5011902;28;20349;-82
2023/01/06 09:27:22;;;;;;;9.25;0.77;;;8.50;99.90;;;;;;5028403;28;20044;-82
2023/01/06 09:29:48;;;;;;;9.20;0.95;;;8.50;99.90;;;;;;5027936;28;20131;-82
2023/01/06 09:32:14;;;;;;;16.67;1.15;;;8.50;99.90;;;;;;5028334;28;20106;-82
2023/01/06 09:34:40;;;;;;;10.60;1.15;;;9.10;99.90;;;;;;5010307;28;20049;-82
2023/01/06 09:37:06;;;;;;;20.90;2.25;;;8.60;99.90;;;;;;5028341;28;20088;-82
2023/01/06 09:39:31;;;;;;;8.10;1.00;;;8.60;99.90;;;;;;5026941;28;20044;-82
2023/01/06 09:42:00;;;;;;;9.38;1.10;;;9.20;99.90;;;;;;5011544;28;20072;-82
2023/01/06 09:44:41;;;;;;;11.25;0.90;;;9.20;99.90;;;;;;5028224;28;20492;-82
2023/01/06 09:47:11;;;;;;;20.38;2.28;;;8.80;99.90;;;;;;5027781;28;20041;-83
2023/01/06 09:49:41;;;;;;;11.32;1.00;;;8.80;99.90;;;;;;5012092;28;20137;-83
2023/01/06 09:52:31;;;;;;;13.90;1.45;;;8.90;99.90;;;;;;5026851;28;20045;-83
2023/01/06 09:55:18;;;;;;;8.50;1.10;;;8.90;99.90;;;;;;5028018;28;20048;-83
2023/01/06 09:57:51;;;;;;;23.55;1.25;;;9.00;99.90;;;;;;5028380;28;20524;-82
2023/01/06 10:00:25;;;;;;;9.55;1.58;;;9.10;99.90;;;;;;5026969;28;20055;-83
2023/01/06 10:02:51;;;;;;;7.78;1.20;;;9.20;99.90;;;;;;5028188;28;20134;-83
2023/01/06 10:05:39;;;;;;;15.05;1.20;;;9.20;99.90;;;;;;4994694;28;20055;-82
2023/01/06 10:08:47;;;;;;;10.75;1.15;;;9.20;99.90;;;;;;5027099;28;20047;-83
2023/01/06 10:11:21;;;;;;;12.75;1.25;;;9.20;99.90;;;;;;5027891;28;20060;-83
2023/01/06 10:14:00;;;;;;;11.15;2.38;;;9.20;99.90;;;;;;5027170;28;20519;-82
2023/01/06 10:16:28;;;;;;;9.20;1.38;;;9.20;99.90;;;;;;5011655;28;20040;-82
2023/01/06 10:19:12;;;;;;;14.65;1.27;;;9.10;99.90;;;;;;5027138;28;20045;-82
2023/01/06 10:21:54;;;;;;;16.92;2.72;;;9.10;99.90;;;;;;5026596;28;20065;-82
2023/01/06 10:24:47;;;;;;;11.10;3.25;;;9.10;99.90;;;;;;5028023;28;20412;-82
2023/01/06 10:27:27;;;;;;;10.43;1.17;;;9.20;99.90;;;;;;5010570;28;20084;-83
2023/01/06 10:29:54;;;;;;;13.80;2.30;;;9.30;99.90;;;;;;5026406;28;20083;-83
2023/01/06 10:32:23;;;;;;;15.98;2.03;;;9.30;99.90;;;;;;5011039;28;20071;-83
2023/01/06 10:34:50;;;;;;;10.52;1.55;;;9.30;99.90;;;;;;5026271;28;20107;-82
2023/01/06 10:37:15;;;;;;;15.07;1.23;;;9.30;99.90;;;;;;4994737;28;20044;-83
2023/01/06 10:39:44;;;;;;;11.43;0.60;;;9.40;99.90;;;;;;5026339;28;20053;-82
2023/01/06 10:42:56;;;;;;;12.02;1.48;;;10.30;99.90;;;;;;5027185;28;20045;-82
2023/01/06 10:45:43;;;;;;;8.35;1.20;;;9.40;99.90;;;;;;5011026;28;20049;-82
2023/01/06 10:48:22;;;;;;;15.95;1.48;;;9.50;99.90;;;;;;5025788;28;20056;-82
2023/01/06 10:50:48;;;;;;;14.27;1.65;;;9.50;99.90;;;;;;5044853;28;20077;-82
2023/01/06 10:53:15;;;;;;;8.27;1.33;;;9.50;99.90;;;;;;5010702;28;20079;-82
2023/01/06 10:55:46;;;;;;;15.52;1.50;;;9.60;99.90;;;;;;5009540;28;20084;-82
2023/01/06 10:58:37;;;;;;;11.45;1.27;;;9.60;99.90;;;;;;5027701;28;20508;-83
2023/01/06 11:01:16;;;;;;;9.73;0.95;;;9.70;99.90;;;;;;5025938;28;20053;-82
2023/01/06 11:03:43;;;;;;;11.52;0.90;;;9.70;99.90;;;;;;5028907;28;20060;-82
2023/01/06 11:06:22;;;;;;;4.75;0.88;;;9.70;99.90;;;;;;5015175;28;20052;-82
2023/01/06 11:08:48;;;;;;;15.70;2.00;;;9.70;99.90;;;;;;5029466;28;20056;-82
2023/01/06 11:11:16;;;;;;;9.55;1.02;;;9.70;99.90;;;;;;4982200;28;20053;-81
2023/01/06 11:13:49;;;;;;;16.63;1.45;;;9.70;99.90;;;;;;5012966;28;20047;-83
2023/01/06 11:16:24;;;;;;;10.90;1.00;;;9.70;99.90;;;;;;5030950;28;20045;-82
2023/01/06 11:18:56;;;;;;;6.32;1.15;;;9.70;99.90;;;;;;5014076;28;20575;-82
2023/01/06 11:21:36;;;;;;;13.20;1.27;;;9.80;99.90;;;;;;5029813;28;20037;-83
2023/01/06 11:24:19;;;;;;;6.32;1.02;;;10.00;99.90;;;;;;5031184;28;20060;-83
2023/01/06 11:26:52;;;;;;;13.43;1.48;;;10.10;99.90;;;;;;5030377;28;20047;-83
2023/01/06 11:29:33;;;;;;;14.38;1.85;;;10.20;99.90;;;;;;5014405;28;20037;-83
2023/01/06 11:32:12;;;;;;;11.35;1.15;;;10.30;99.90;;;;;;5048902;28;20041;-82
2023/01/06 11:34:38;;;;;;;12.23;1.27;;;10.40;99.90;;;;;;5029092;28;20132;-83
2023/01/06 11:37:04;;;;;;;14.68;2.05;;;10.40;99.90;;;;;;5048945;28;20119;-83
2023/01/06 11:39:33;;;;;;;11.55;1.73;;;10.40;99.90;;;;;;5029513;28;20049;-83
2023/01/06 11:42:12;;;;;;;18.27;2.10;;;10.40;99.90;;;;;;5030320;28;20048;-83
2023/01/06 11:44:40;;;;;;;8.52;1.63;;;10.40;99.90;;;;;;5047947;28;20141;-83
2023/01/06 11:47:19;;;;;;;10.00;1.88;;;10.40;99.90;;;;;;5047103;28;20150;-82
2023/01/06 11:49:48;;;;;;;9.80;1.50;;;10.40;99.90;;;;;;5030771;28;20099;-82
2023/01/06 11:52:30;;;;;;;11.15;1.88;;;10.40;99.90;;;;;;5011874;28;20056;-82
2023/01/06 11:55:22;;;;;;;10.15;0.90;;;10.30;99.90;;;;;;5014030;28;20618;-82
2023/01/06 11:58:03;;;;;;;12.25;1.38;;;10.30;99.90;;;;;;5045142;28;20527;-82
2023/01/06 12:00:47;;;;;;;11.00;1.75;;;10.30;99.90;;;;;;5028739;28;20064;-82
2023/01/06 12:03:22;;;;;;;12.60;2.00;;;10.30;99.90;;;;;;5047783;28;20057;-82
2023/01/06 12:06:09;;;;;;;11.93;1.23;;;10.30;99.90;;;;;;5047546;28;20094;-82
2023/01/06 12:08:39;;;;;;;9.25;1.17;;;10.20;99.90;;;;;;5046199;28;20092;-82
2023/01/06 12:11:24;;;;;;;19.40;1.98;;;10.20;99.90;;;;;;5030337;28;20128;-82
2023/01/06 12:13:50;;;;;;;17.13;2.45;;;10.20;99.90;;;;;;5046228;28;20084;-83
2023/01/06 12:16:40;;;;;;;4.78;0.95;;;10.20;99.90;;;;;;5012480;28;20049;-83
2023/01/06 12:19:16;;;;;;;8.93;1.00;;;10.20;99.90;;;;;;5028970;28;20127;-81
2023/01/06 12:21:41;;;;;;;11.93;2.38;;;10.20;99.90;;;;;;5028678;28;20056;-83
2023/01/06 12:24:14;;;;;;;7.32;1.30;;;10.20;99.90;;;;;;5012863;28;20037;-83
2023/01/06 12:26:41;;;;;;;7.15;0.95;;;10.20;99.90;;;;;;5011357;28;20049;-83
2023/01/06 12:29:08;;;;;;;9.57;1.60;;;10.10;99.90;;;;;;5029006;28;20139;-83
2023/01/06 12:32:03;;;;;;;6.30;1.42;;;10.10;99.90;;;;;;5028335;28;20053;-82
2023/01/06 12:34:36;;;;;;;12.75;1.10;;;10.00;99.90;;;;;;4998372;28;20052;-82
2023/01/06 12:37:08;;;;;;;;;;;10.00;99.90;;;;;;5030304;28;20044;-83
2023/01/06 12:40:00;;;;;;;10.43;1.17;;;10.00;99.90;;;;;;5010732;28;19920;-83
2023/01/06 12:42:48;;;;;;;11.55;1.00;;;10.00;99.90;;;;;;5027747;28;20076;-84
2023/01/06 12:45:38;;;;;;;6.47;1.13;;;10.10;99.90;;;;;;5047203;28;20096;-83
2023/01/06 12:48:16;;;;;;;12.32;1.05;;;10.10;99.90;;;;;;5045993;28;20045;-83
2023/01/06 12:50:50;;;;;;;14.35;2.25;;;10.00;99.90;;;;;;5027827;28;20076;-83
2023/01/06 12:53:31;;;;;;;12.25;1.15;;;10.00;99.90;;;;;;5028882;28;20059;-82
2023/01/06 12:56:18;;;;;;;10.80;1.08;;;10.10;99.90;;;;;;5010906;28;20049;-83
2023/01/06 12:58:55;;;;;;;12.75;1.33;;;10.00;99.90;;;;;;5027930;28;20041;-83
2023/01/06 13:01:46;;;;;;;11.32;2.25;;;10.10;99.90;;;;;;5011009;28;20051;-82
2023/01/06 13:04:27;;;;;;;11.32;0.93;;;10.30;99.90;;;;;;5002297;28;20045;-83
2023/01/06 13:07:10;;;;;;;9.80;1.00;;;10.40;99.90;;;;;;5028581;28;20361;-84
2023/01/06 13:10:12;;;;;;;8.07;1.60;;;10.20;99.90;;;;;;5010109;28;20064;-88